Time;durP1;ratioP1;P1;durP2;ratioP2;P2;SDS_P1;SDS_P2;PMS_P1;PMS_P2;Temp;Humidity;BMP_temperature;BMP_pressure;BME280_temperature;BME280_humidity;BME280_pressure;Samples;Min_cycle;Max_cycle;Signal;HPM_P1;HPM_P2
2022/07/11 00:00:12;;;;;;;2.07;1.73;;;;;;;12.84;100.00;97585.56;5027818;28;20643;-61
2022/07/11 00:02:41;;;;;;;1.20;1.20;;;;;;;12.85;100.00;97587.22;5038078;28;20196;-58
2022/07/11 00:05:11;;;;;;;1.83;1.60;;;;;;;12.86;100.00;97593.38;5024017;28;20309;-59
2022/07/11 00:07:39;;;;;;;1.30;1.20;;;;;;;12.87;100.00;97593.19;5037023;28;20291;-62
2022/07/11 00:10:07;;;;;;;1.40;1.30;;;;;;;12.88;100.00;97592.19;5036095;28;20251;-57
2022/07/11 00:12:35;;;;;;;1.37;1.30;;;;;;;12.87;100.00;97593.19;4997478;28;20301;-58
2022/07/11 00:15:04;;;;;;;2.40;1.50;;;;;;;12.85;100.00;97594.41;5041361;28;20660;-61
2022/07/11 00:17:32;;;;;;;1.70;1.50;;;;;;;12.87;100.00;97587.03;5019841;28;20225;-59
2022/07/11 00:20:00;;;;;;;2.40;1.40;;;;;;;12.87;100.00;97589.72;5025045;28;20203;-60
2022/07/11 00:22:29;;;;;;;1.63;1.53;;;;;;;12.87;100.00;97585.19;5042193;28;20239;-57
2022/07/11 00:24:57;;;;;;;1.33;1.27;;;;;;;12.88;100.00;97586.03;5037435;28;20855;-59
2022/07/11 00:27:25;;;;;;;2.23;1.60;;;;;;;12.89;100.00;97579.69;5003035;28;20344;-59
2022/07/11 00:29:53;;;;;;;2.17;1.37;;;;;;;12.87;100.00;97579.06;5034313;28;20231;-59
2022/07/11 00:32:22;;;;;;;1.50;1.33;;;;;;;12.83;100.00;97572.47;5024240;28;20235;-60
2022/07/11 00:34:50;;;;;;;3.00;1.40;;;;;;;12.77;100.00;97573.25;5024000;28;20206;-62
2022/07/11 00:37:18;;;;;;;1.80;1.33;;;;;;;12.77;100.00;97568.72;5036618;28;20265;-56
2022/07/11 00:39:47;;;;;;;1.77;1.67;;;;;;;12.77;100.00;97573.25;5037421;28;20315;-58
2022/07/11 00:42:17;;;;;;;1.53;1.53;;;;;;;12.71;100.00;97572.16;5003858;28;20227;-59
2022/07/11 00:44:46;;;;;;;2.10;1.87;;;;;;;12.73;100.00;97578.09;5040529;28;20769;-59
2022/07/11 00:47:14;;;;;;;2.77;1.77;;;;;;;12.70;100.00;97579.31;5023185;28;20725;-56
2022/07/11 00:49:42;;;;;;;1.63;1.53;;;;;;;12.62;100.00;97570.63;5036898;28;20227;-59
2022/07/11 00:52:10;;;;;;;1.57;1.47;;;;;;;12.59;100.00;97579.78;5021874;28;20306;-57
2022/07/11 00:54:39;;;;;;;1.73;1.63;;;;;;;12.54;100.00;97577.72;5043406;28;20537;-61
2022/07/11 00:57:08;;;;;;;2.43;1.60;;;;;;;12.48;100.00;97580.28;4997098;28;20839;-57
2022/07/11 00:59:36;;;;;;;1.70;1.70;;;;;;;12.42;100.00;97572.03;5016445;28;20243;-59
2022/07/11 01:02:05;;;;;;;1.73;1.40;;;;;;;12.42;100.00;97569.38;5026107;28;21687;-57
2022/07/11 01:04:34;;;;;;;1.33;1.30;;;;;;;12.41;100.00;97564.25;5037607;28;20216;-60
2022/07/11 01:07:03;;;;;;;1.80;1.70;;;;;;;12.41;100.00;97569.56;5024219;28;20227;-61
2022/07/11 01:09:31;;;;;;;2.47;1.60;;;;;;;12.42;100.00;97572.03;5035770;28;20273;-60
2022/07/11 01:11:59;;;;;;;1.63;1.53;;;;;;;12.47;100.00;97565.34;5042983;28;20426;-59
2022/07/11 01:14:29;;;;;;;1.53;1.33;;;;;;;12.46;100.00;97564.50;5004530;28;20627;-59
2022/07/11 01:16:57;;;;;;;3.70;1.83;;;;;;;12.48;100.00;97562.47;5042459;28;20542;-62
2022/07/11 01:19:25;;;;;;;2.00;1.80;;;;;;;12.45;100.00;97561.03;5022699;28;20285;-61
2022/07/11 01:22:49;;;;;;;1.77;1.67;;;;;;;12.47;100.00;97557.38;5018637;28;20320;-59
2022/07/11 01:25:30;;;;;;;3.10;1.50;;;;;;;12.51;100.00;97548.84;5012203;28;20227;-63
2022/07/11 01:27:59;;;;;;;1.60;1.57;;;;;;;12.58;100.00;97557.72;4991181;28;20698;-61
2022/07/11 01:30:28;;;;;;;1.50;1.40;;;;;;;12.59;100.00;97548.72;5045144;28;20282;-56
2022/07/11 01:32:57;;;;;;;1.33;1.33;;;;;;;12.61;100.00;97555.69;5017849;28;20487;-60
2022/07/11 01:35:26;;;;;;;1.97;1.83;;;;;;;12.61;100.00;97547.72;5046193;28;20286;-60
2022/07/11 01:37:54;;;;;;;1.80;1.70;;;;;;;12.61;100.00;97553.03;5019276;28;20730;-59
2022/07/11 01:40:30;;;;;;;1.80;1.70;;;;;;;12.63;100.00;97556.31;5046088;28;20248;-60
2022/07/11 01:42:59;;;;;;;2.13;1.77;;;;;;;12.65;100.00;97551.63;4992094;28;21157;-59
2022/07/11 01:45:27;;;;;;;2.30;2.20;;;;;;;12.62;100.00;97552.81;5043733;28;20691;-57
2022/07/11 01:47:55;;;;;;;1.70;1.60;;;;;;;12.65;100.00;97552.44;5037778;28;20782;-63
2022/07/11 01:50:24;;;;;;;2.10;2.00;;;;;;;12.55;100.00;97546.63;5024155;28;20211;-57
2022/07/11 01:52:52;;;;;;;1.50;1.40;;;;;;;12.51;100.00;97543.53;5017402;28;20705;-60
2022/07/11 01:55:20;;;;;;;2.00;1.90;;;;;;;12.49;100.00;97555.34;5043015;28;20681;-61
2022/07/11 01:57:50;;;;;;;2.10;1.90;;;;;;;12.53;100.00;97548.66;5040861;28;20258;-60
2022/07/11 02:00:18;;;;;;;1.90;1.80;;;;;;;12.54;100.00;97547.63;4995780;28;20254;-62
2022/07/11 02:02:46;;;;;;;2.10;1.80;;;;;;;12.55;100.00;97549.28;5034219;28;20282;-61
2022/07/11 02:05:15;;;;;;;1.90;1.60;;;;;;;12.55;100.00;97543.97;5022147;28;20219;-60
2022/07/11 02:10:29;;;;;;;1.77;1.67;;;;;;;12.51;100.00;97537.38;5017454;28;20771;-63
2022/07/11 02:13:00;;;;;;;1.57;1.47;;;;;;;12.53;100.00;97530.88;5038227;28;20907;-59
2022/07/11 02:15:28;;;;;;;2.43;1.80;;;;;;;12.56;100.00;97533.16;4987272;28;20337;-62
2022/07/11 02:17:57;;;;;;;2.63;1.37;;;;;;;12.55;100.00;97534.16;5023817;28;20230;-61
2022/07/11 02:20:26;;;;;;;2.57;1.67;;;;;;;12.57;100.00;97537.47;5022636;28;20211;-63
2022/07/11 02:22:56;;;;;;;2.33;1.80;;;;;;;12.54;100.00;97527.22;5038119;28;20501;-62
2022/07/11 02:25:24;;;;;;;2.33;1.70;;;;;;;12.51;100.00;97529.41;5019893;28;20688;-59
2022/07/11 02:27:52;;;;;;;2.07;1.97;;;;;;;12.42;100.00;97529.53;5036479;28;21724;-63
2022/07/11 02:30:22;;;;;;;1.97;1.87;;;;;;;12.39;100.00;97531.72;4992090;28;20859;-61
2022/07/11 02:32:51;;;;;;;1.97;1.87;;;;;;;12.36;100.00;97529.44;5036362;28;20298;-61
2022/07/11 02:35:20;;;;;;;1.70;1.60;;;;;;;12.25;100.00;97530.75;5038105;28;20234;-61
2022/07/11 02:37:48;;;;;;;2.30;1.90;;;;;;;12.26;100.00;97533.22;5020811;28;20531;-58
2022/07/11 02:40:16;;;;;;;2.10;2.00;;;;;;;12.27;100.00;97528.72;5018503;28;20668;-59
2022/07/11 02:42:45;;;;;;;2.30;2.20;;;;;;;12.27;100.00;97516.28;5039237;28;20289;-61
2022/07/11 02:45:13;;;;;;;2.33;2.03;;;;;;;12.27;100.00;97524.25;5038651;28;20310;-60
2022/07/11 02:47:43;;;;;;;2.00;1.90;;;;;;;12.29;100.00;97529.34;4984712;28;20731;-59
2022/07/11 02:50:12;;;;;;;1.90;1.80;;;;;;;12.32;100.00;97536.13;5036896;28;20199;-59
2022/07/11 02:52:41;;;;;;;3.20;2.13;;;;;;;12.31;100.00;97532.66;5020783;28;20212;-59
2022/07/11 02:55:11;;;;;;;3.13;2.00;;;;;;;12.29;100.00;97518.72;5040918;28;20239;-57
2022/07/11 02:57:40;;;;;;;2.03;1.93;;;;;;;12.32;100.00;97530.81;5011103;28;20222;-58
2022/07/11 03:00:10;;;;;;;2.50;1.77;;;;;;;12.33;100.00;97530.66;5039684;28;20207;-58
2022/07/11 03:02:39;;;;;;;1.80;1.70;;;;;;;12.33;100.00;97535.13;4990813;28;20273;-61
2022/07/11 03:05:09;;;;;;;1.90;1.80;;;;;;;12.36;100.00;97529.44;5041264;28;20215;-60
2022/07/11 03:07:38;;;;;;;1.80;1.70;;;;;;;12.37;100.00;97531.09;5018069;28;20243;-57
2022/07/11 03:10:06;;;;;;;1.47;1.40;;;;;;;12.38;100.00;97546.03;5038732;28;20211;-61
2022/07/11 03:12:35;;;;;;;2.07;1.87;;;;;;;12.38;100.00;97546.03;5018515;28;20665;-58
2022/07/11 03:15:03;;;;;;;1.97;1.87;;;;;;;12.42;100.00;97536.66;5040560;28;20487;-61
2022/07/11 03:17:32;;;;;;;2.53;1.77;;;;;;;12.43;100.00;97554.25;4988167;28;20247;-58
2022/07/11 03:20:00;;;;;;;2.33;2.17;;;;;;;12.42;100.00;97550.78;5039598;28;20281;-60
2022/07/11 03:22:30;;;;;;;2.00;1.90;;;;;;;12.43;100.00;97549.78;5018506;28;20215;-57
2022/07/11 03:25:00;;;;;;;1.93;1.77;;;;;;;12.50;100.00;97541.06;5034559;28;20875;-62
2022/07/11 03:27:29;;;;;;;1.90;1.80;;;;;;;12.50;100.00;97535.72;4988111;28;20790;-60
2022/07/11 03:29:59;;;;;;;2.23;2.10;;;;;;;12.50;100.00;97538.38;5041887;28;20586;-58
2022/07/11 03:32:27;;;;;;;1.80;1.70;;;;;;;12.47;100.00;97531.59;4985179;28;21216;-61
2022/07/11 03:37:43;;;;;;;2.70;2.13;;;;;;;12.45;100.00;97541.59;5019999;28;20993;-60
2022/07/11 03:40:12;;;;;;;2.00;1.90;;;;;;;12.47;100.00;97536.91;5040168;28;20623;-59
2022/07/11 03:42:40;;;;;;;2.60;2.07;;;;;;;12.51;100.00;97540.03;5018051;28;20891;-58
2022/07/11 03:45:09;;;;;;;2.20;2.10;;;;;;;12.49;100.00;97544.72;5021469;28;20211;-61
2022/07/11 03:47:38;;;;;;;1.90;1.80;;;;;;;12.49;100.00;97550.84;5038035;28;20438;-60
2022/07/11 03:50:07;;;;;;;1.80;1.70;;;;;;;12.53;100.00;97567.25;4990577;28;20261;-57
2022/07/11 03:52:35;;;;;;;2.97;1.90;;;;;;;12.59;100.00;97550.53;5005674;28;20257;-60
2022/07/11 03:55:06;;;;;;;2.03;1.50;;;;;;;12.61;100.00;97543.22;5023016;28;20238;-60
2022/07/11 03:57:35;;;;;;;1.73;1.67;;;;;;;12.59;100.00;97553.22;5041416;28;20226;-58
2022/07/11 04:00:06;;;;;;;2.50;1.80;;;;;;;12.63;100.00;97559.78;5022321;28;20753;-56
2022/07/11 04:02:34;;;;;;;3.80;1.70;;;;;;;12.61;100.00;97558.34;5042250;28;20241;-59
2022/07/11 04:05:03;;;;;;;4.93;2.47;;;;;;;12.63;100.00;97558.97;4989230;28;20302;-64
2022/07/11 04:07:31;;;;;;;3.93;1.90;;;;;;;12.64;100.00;97556.13;5041636;28;20218;-61
2022/07/11 04:09:59;;;;;;;1.63;1.57;;;;;;;12.66;100.00;97561.25;5015117;28;20734;-64
2022/07/11 04:12:29;;;;;;;3.40;1.63;;;;;;;12.67;100.00;97560.25;5030274;28;20203;-60
2022/07/11 04:14:57;;;;;;;2.47;1.40;;;;;;;12.74;100.00;97558.47;5017346;28;20550;-61
2022/07/11 04:17:28;;;;;;;1.50;1.40;;;;;;;12.83;100.00;97562.66;5037639;28;20683;-58
2022/07/11 04:19:57;;;;;;;3.00;1.43;;;;;;;12.86;100.00;97564.94;4992345;28;20215;-57
2022/07/11 04:22:26;;;;;;;2.30;1.10;;;;;;;12.80;100.00;97562.22;5039991;28;20291;-60
2022/07/11 04:24:54;;;;;;;1.50;1.40;;;;;;;12.84;100.00;97572.28;5022565;28;20207;-61
2022/07/11 04:27:24;;;;;;;1.77;1.67;;;;;;;12.84;100.00;97574.13;5034089;28;20325;-61
2022/07/11 04:29:58;;;;;;;1.40;1.23;;;;;;;12.72;100.00;97571.13;5036860;28;20203;-62
2022/07/11 04:32:27;;;;;;;1.47;1.37;;;;;;;12.67;100.00;97569.03;5018097;28;20252;-61
2022/07/11 04:34:55;;;;;;;1.23;1.23;;;;;;;12.67;100.00;97576.19;4991296;28;20561;-60
2022/07/11 04:37:26;;;;;;;2.77;1.23;;;;;;;12.51;100.00;97582.56;5036748;28;20188;-55
2022/07/11 04:39:54;;;;;;;0.97;0.97;;;;;;;12.37;100.00;97569.13;5035169;28;20208;-61
2022/07/11 04:42:22;;;;;;;0.90;0.90;;;;;;;12.49;100.00;97581.91;5016989;28;20294;-57
2022/07/11 04:44:50;;;;;;;1.10;1.10;;;;;;;12.44;100.00;97585.97;5036423;28;20231;-56
2022/07/11 04:47:20;;;;;;;1.30;1.30;;;;;;;12.33;100.00;97589.09;5018389;28;20863;-60
2022/07/11 04:49:50;;;;;;;1.57;1.10;;;;;;;12.39;100.00;97592.84;5040305;28;20367;-58
2022/07/11 04:52:18;;;;;;;0.93;0.93;;;;;;;12.41;100.00;97582.84;4996481;28;20319;-59
2022/07/11 04:54:47;;;;;;;1.50;1.40;;;;;;;12.49;100.00;97595.22;5044147;28;20642;-61
2022/07/11 04:57:15;;;;;;;1.43;1.43;;;;;;;12.53;100.00;97592.00;5023553;28;20745;-60
2022/07/11 04:59:43;;;;;;;1.10;1.10;;;;;;;12.41;100.00;97596.97;5036831;28;20968;-59
2022/07/11 05:02:11;;;;;;;2.23;1.20;;;;;;;12.48;100.00;97605.00;5019174;28;20519;-62
2022/07/11 05:04:41;;;;;;;1.00;0.73;;;;;;;12.40;100.00;97607.78;5039990;28;20321;-57
2022/07/11 05:07:10;;;;;;;1.13;1.00;;;;;;;12.45;100.00;97611.53;4990504;28;20778;-58
2022/07/11 05:09:38;;;;;;;1.93;1.03;;;;;;;12.49;100.00;97603.19;5037211;28;20277;-61
2022/07/11 05:12:08;;;;;;;1.93;1.20;;;;;;;12.58;100.00;97607.38;5018838;28;20231;-62
2022/07/11 05:14:36;;;;;;;0.70;0.70;;;;;;;12.70;100.00;97605.91;5039774;28;20436;-60
2022/07/11 05:17:05;;;;;;;2.10;1.10;;;;;;;12.71;100.00;97612.03;5014342;28;20203;-62
2022/07/11 05:19:33;;;;;;;1.10;1.10;;;;;;;12.81;100.00;97611.75;5014348;28;20337;-60
2022/07/11 05:22:03;;;;;;;1.20;1.20;;;;;;;12.81;100.00;97609.09;4988507;28;20247;-60
2022/07/11 05:24:31;;;;;;;1.10;1.10;;;;;;;12.81;100.00;97601.91;5027302;28;20667;-61
2022/07/11 05:26:59;;;;;;;0.90;0.90;;;;;;;12.93;100.00;97604.09;5031715;28;20518;-62
2022/07/11 05:29:28;;;;;;;1.37;1.33;;;;;;;12.92;100.00;97607.78;5036655;28;20231;-62
2022/07/11 05:31:56;;;;;;;1.20;1.10;;;;;;;12.95;100.00;97604.72;5029938;28;20298;-61
2022/07/11 05:34:25;;;;;;;1.67;0.93;;;;;;;12.89;100.00;97606.28;5037852;28;20306;-60
2022/07/11 05:36:54;;;;;;;1.00;1.00;;;;;;;13.09;100.00;97603.03;4982716;28;20908;-59
2022/07/11 05:39:23;;;;;;;1.27;1.10;;;;;;;13.32;100.00;97611.63;5030782;28;20238;-62
2022/07/11 05:41:52;;;;;;;1.60;1.13;;;;;;;13.36;100.00;97598.78;5041295;28;20218;-59
2022/07/11 05:44:20;;;;;;;1.63;1.53;;;;;;;13.46;100.00;97609.13;5032775;28;20314;-61
2022/07/11 05:46:49;;;;;;;1.07;1.07;;;;;;;13.84;100.00;97608.81;5039453;28;20251;-61
2022/07/11 05:49:17;;;;;;;1.27;1.17;;;;;;;14.18;100.00;97609.00;5025607;28;20382;-56
2022/07/11 05:51:46;;;;;;;1.80;1.37;;;;;;;14.42;100.00;97612.19;5037500;28;20266;-62
2022/07/11 05:54:17;;;;;;;1.27;1.13;;;;;;;14.53;100.00;97608.13;5009669;28;20580;-58
2022/07/11 05:56:47;;;;;;;1.17;1.17;;;;;;;14.60;100.00;97603.66;5031017;28;20252;-62
2022/07/11 05:59:15;;;;;;;2.30;1.10;;;;;;;14.71;100.00;97605.78;5024118;28;20473;-60
2022/07/11 06:01:43;;;;;;;1.00;1.00;;;;;;;14.72;100.00;97606.59;5039261;28;20219;-60
2022/07/11 06:04:12;;;;;;;1.00;0.93;;;;;;;14.53;100.00;97610.78;5012865;28;20489;-59
2022/07/11 06:06:42;;;;;;;12.27;11.17;;;;;;;14.45;100.00;97609.13;5043346;28;20199;-57
2022/07/11 06:09:10;;;;;;;1.50;1.50;;;;;;;14.56;100.00;97602.38;4977056;28;20595;-61
2022/07/11 06:11:38;;;;;;;1.70;1.60;;;;;;;14.66;100.00;97605.53;5029285;28;20637;-63
2022/07/11 06:14:09;;;;;;;1.53;1.43;;;;;;;14.60;100.00;97603.66;5028070;28;20434;-60
2022/07/11 06:16:38;;;;;;;1.30;1.30;;;;;;;14.55;100.00;97608.75;5041842;28;20729;-61
2022/07/11 06:19:06;;;;;;;0.90;0.90;;;;;;;14.51;100.00;97600.34;5018426;28;20223;-53
2022/07/11 06:21:34;;;;;;;1.03;1.03;;;;;;;14.61;100.00;97600.78;5042106;28;20277;-62
2022/07/11 06:24:03;;;;;;;1.20;0.90;;;;;;;14.56;100.00;97589.06;4975472;28;20298;-62
2022/07/11 06:26:31;;;;;;;1.43;1.10;;;;;;;14.09;100.00;97596.84;5040540;28;20618;-60
2022/07/11 06:28:59;;;;;;;1.00;1.00;;;;;;;14.13;100.00;97606.09;5012875;28;20327;-61
2022/07/11 06:31:29;;;;;;;2.17;1.47;;;;;;;14.12;100.00;97610.59;5043807;28;20234;-60
2022/07/11 06:33:58;;;;;;;1.87;1.07;;;;;;;14.32;100.00;97609.91;5026255;28;20234;-62
2022/07/11 06:36:26;;;;;;;1.60;1.50;;;;;;;14.59;100.00;97612.69;5036312;28;20207;-59
2022/07/11 06:38:55;;;;;;;2.57;2.47;;;;;;;14.62;100.00;97602.44;4992310;28;20375;-62
2022/07/11 06:41:23;;;;;;;1.63;1.53;;;;;;;14.64;100.00;97604.06;5022381;28;20495;-56
2022/07/11 06:43:51;;;;;;;1.80;1.70;;;;;;;14.74;100.00;97609.88;5030843;28;20223;-60
2022/07/11 06:46:19;;;;;;;1.30;1.30;;;;;;;14.83;100.00;97614.03;5041526;28;20488;-60
2022/07/11 06:48:49;;;;;;;1.47;1.40;;;;;;;14.83;100.00;97607.84;5038391;28;20251;-60
2022/07/11 06:51:17;;;;;;;1.70;1.60;;;;;;;14.91;100.00;97618.34;5016029;28;20405;-61
2022/07/11 06:53:46;;;;;;;1.90;1.80;;;;;;;14.96;100.00;97618.56;5037094;28;20203;-63
2022/07/11 06:56:15;;;;;;;3.03;2.40;;;;;;;15.16;100.00;97612.44;4986777;28;20229;-61
2022/07/11 06:58:43;;;;;;;8.43;7.83;;;;;;;15.21;100.00;97614.53;5040335;28;20270;-60
2022/07/11 07:01:11;;;;;;;2.10;2.00;;;;;;;15.41;100.00;97614.53;5020604;28;20207;-62
2022/07/11 07:03:39;;;;;;;1.73;1.63;;;;;;;15.29;100.00;97620.47;5038908;28;20295;-60
2022/07/11 07:06:10;;;;;;;1.30;1.30;;;;;;;15.11;100.00;97626.38;5020030;28;20319;-63
2022/07/11 07:08:38;;;;;;;2.10;1.90;;;;;;;15.02;100.00;97623.09;5038228;28;20455;-60
2022/07/11 07:11:06;;;;;;;1.63;1.53;;;;;;;14.80;100.00;97625.09;4973559;28;20494;-60
2022/07/11 07:13:36;;;;;;;3.03;1.90;;;;;;;14.59;100.00;97628.69;5041651;28;20706;-60
2022/07/11 07:16:06;;;;;;;2.37;2.00;;;;;;;14.50;100.00;97630.69;5022433;28;20528;-57
2022/07/11 07:18:37;;;;;;;2.07;1.97;;;;;;;14.36;100.00;97628.97;5038574;28;20216;-63
2022/07/11 07:21:06;;;;;;;2.37;2.00;;;;;;;14.25;100.00;97633.84;5018033;28;20419;-60
2022/07/11 07:23:36;;;;;;;2.10;2.00;;;;;;;14.16;100.00;97633.16;5041504;28;20204;-61
2022/07/11 07:26:04;;;;;;;1.80;1.80;;;;;;;14.27;100.00;97637.13;4993223;28;20698;-53
2022/07/11 07:28:32;;;;;;;3.37;1.70;;;;;;;14.23;100.00;97637.72;5019324;28;20309;-58
2022/07/11 07:31:01;;;;;;;1.13;1.13;;;;;;;14.07;100.00;97641.53;5028022;28;20196;-58
2022/07/11 07:33:29;;;;;;;0.70;0.70;;;;;;;14.10;100.00;97641.94;5043846;28;20210;-61
2022/07/11 07:36:12;;;;;;;1.67;1.30;;;;;;;14.26;100.00;97643.47;5016293;28;20904;-56
2022/07/11 07:38:43;;;;;;;1.30;1.20;;;;;;;14.56;100.00;97634.38;5041632;28;20640;-55
2022/07/11 07:41:13;;;;;;;0.93;0.93;;;;;;;14.83;100.00;97634.53;4997632;28;20215;-64
2022/07/11 07:43:42;;;;;;;0.77;0.77;;;;;;;15.22;100.00;97632.97;5020323;28;20210;-62
2022/07/11 07:46:11;;;;;;;0.80;0.80;;;;;;;15.40;100.00;97621.72;5039760;28;20206;-59
2022/07/11 07:48:40;;;;;;;0.90;0.90;;;;;;;15.49;100.00;97623.16;5028632;28;20362;-59
2022/07/11 07:51:08;;;;;;;0.80;0.80;;;;;;;15.67;100.00;97626.22;5040024;28;20346;-60
2022/07/11 07:53:36;;;;;;;0.90;0.77;;;;;;;15.57;100.00;97629.34;5020704;28;20471;-58
2022/07/11 07:56:07;;;;;;;0.83;0.83;;;;;;;15.84;100.00;97630.16;5034970;28;20195;-52
2022/07/11 07:58:35;;;;;;;1.00;1.00;;;;;;;16.25;100.00;97630.91;4979530;28;20231;-61
2022/07/11 08:03:49;;;;;;;0.70;0.70;;;;;;;17.93;100.00;97619.25;5024208;28;20204;-62
2022/07/11 08:06:18;;;;;;;7.13;6.53;;;;;;;17.55;100.00;97620.19;5022936;28;20697;-62
2022/07/11 08:08:46;;;;;;;2.00;1.90;;;;;;;17.20;100.00;97628.69;5019864;28;20254;-60
2022/07/11 08:11:16;;;;;;;1.90;1.80;;;;;;;17.27;100.00;97621.44;5036596;28;20231;-62
2022/07/11 08:14:00;;;;;;;0.90;0.90;;;;;;;17.12;100.00;97626.28;4971869;28;20210;-59
2022/07/11 08:16:30;;;;;;;0.73;0.73;;;;;;;17.23;100.00;97636.28;5036165;28;20191;-59
2022/07/11 08:19:00;;;;;;;1.00;1.00;;;;;;;17.54;100.00;97629.28;5022297;28;20223;-62
2022/07/11 08:21:29;;;;;;;0.97;0.97;;;;;;;17.62;100.00;97623.66;5041489;28;20200;-56
2022/07/11 08:23:57;;;;;;;0.97;0.97;;;;;;;17.72;100.00;97622.34;5009553;28;20571;-60
2022/07/11 08:26:27;;;;;;;0.90;0.90;;;;;;;17.72;100.00;97606.28;5038796;28;20219;-62
2022/07/11 08:29:01;;;;;;;1.00;1.00;;;;;;;17.91;100.00;97615.97;4981939;28;20254;-58
2022/07/11 08:31:29;;;;;;;1.00;1.00;;;;;;;18.20;100.00;97615.53;5036390;28;20718;-57
2022/07/11 08:33:58;;;;;;;1.50;0.80;;;;;;;18.63;100.00;97611.13;5029775;28;20206;-56
2022/07/11 08:36:29;;;;;;;1.07;1.07;;;;;;;18.36;100.00;97612.25;5040510;28;20199;-61
2022/07/11 08:38:59;;;;;;;1.80;0.80;;;;;;;18.40;100.00;97609.13;5023140;28;20424;-60
2022/07/11 08:41:29;;;;;;;0.97;0.97;;;;;;;18.37;100.00;97608.53;5040024;28;20215;-61
2022/07/11 08:43:59;;;;;;;1.50;1.50;;;;;;;18.07;100.00;97613.81;5000024;28;20223;-60
2022/07/11 08:46:29;;;;;;;1.23;1.20;;;;;;;17.70;100.00;97616.38;5001739;28;20235;-61
2022/07/11 08:48:58;;;;;;;1.70;1.70;;;;;;;17.79;100.00;97613.19;5041085;28;20230;-60
2022/07/11 08:51:28;;;;;;;1.50;1.50;;;;;;;17.61;100.00;97613.16;5025018;28;20359;-57
2022/07/11 08:53:56;;;;;;;15.97;5.20;;;;;;;17.09;100.00;97614.16;5044005;28;20199;-58
2022/07/11 08:56:26;;;;;;;2.77;2.60;;;;;;;16.42;100.00;97617.91;5024966;28;20211;-58
2022/07/11 08:58:59;;;;;;;2.67;2.47;;;;;;;16.64;100.00;97622.97;5000431;28;20707;-61
2022/07/11 09:01:30;;;;;;;2.93;2.73;;;;;;;16.83;100.00;97612.38;5021804;28;20199;-58
2022/07/11 09:03:59;;;;;;;2.67;2.53;;;;;;;16.95;100.00;97612.53;5039895;28;20191;-58
2022/07/11 09:06:28;;;;;;;2.20;2.10;;;;;;;17.10;100.00;97615.78;5025776;28;20211;-61
2022/07/11 09:09:00;;;;;;;1.10;1.10;;;;;;;17.01;100.00;97617.91;5041174;28;20218;-61
2022/07/11 09:11:29;;;;;;;1.40;1.30;;;;;;;16.62;100.00;97614.34;5019816;28;20211;-56
2022/07/11 09:13:59;;;;;;;1.70;1.40;;;;;;;16.57;100.00;97616.84;5000603;28;20615;-60
2022/07/11 09:16:28;;;;;;;1.30;1.30;;;;;;;16.54;100.00;97615.41;5019558;28;20219;-59
2022/07/11 09:19:00;;;;;;;1.53;1.13;;;;;;;16.72;100.00;97616.59;5041817;28;20238;-60
2022/07/11 09:26:59;;;;;;;0.80;0.80;;;;;;;17.39;100.00;97604.69;5020634;28;20270;-56
2022/07/11 09:29:29;;;;;;;0.40;0.40;;;;;;;17.74;100.00;97604.19;4996937;28;20615;-60
2022/07/11 09:31:57;;;;;;;0.60;0.60;;;;;;;17.66;100.00;97607.97;5024812;28;20889;-56
2022/07/11 09:34:28;;;;;;;0.37;0.37;;;;;;;17.72;100.00;97607.06;5042630;28;20230;-59
2022/07/11 09:36:57;;;;;;;0.80;0.80;;;;;;;17.65;100.00;97601.78;5029354;28;20557;-61
2022/07/11 09:39:27;;;;;;;0.50;0.50;;;;;;;17.94;100.00;97604.00;5035228;28;20227;-61
2022/07/11 09:41:56;;;;;;;0.63;0.60;;;;;;;17.94;100.00;97604.81;5041363;28;20289;-62
2022/07/11 09:44:28;;;;;;;0.50;0.50;;;;;;;18.11;100.00;97600.75;5047802;28;20660;-62
2022/07/11 09:46:58;;;;;;;10.70;9.67;;;;;;;18.27;100.00;97605.56;5047571;28;20248;-57
2022/07/11 09:49:31;;;;;;;2.63;2.53;;;;;;;18.55;100.00;97608.75;5048541;28;20969;-60
2022/07/11 09:52:08;;;;;;;0.80;0.80;;;;;;;18.56;100.00;97605.84;5051099;28;20211;-57
2022/07/11 09:54:54;;;;;;;0.70;0.70;;;;;;;19.00;100.00;97600.34;5049017;28;20230;-59
2022/07/11 09:57:30;;;;;;;1.53;0.80;;;;;;;19.36;100.00;97603.13;5052567;28;20659;-59
2022/07/11 09:59:59;;;;;;;1.03;1.03;;;;;;;19.26;100.00;97608.22;5046069;28;20218;-59
2022/07/11 10:02:29;;;;;;;0.60;0.60;;;;;;;19.12;100.00;97602.22;5046623;28;20668;-59
2022/07/11 10:04:59;;;;;;;0.70;0.70;;;;;;;19.27;100.00;97612.53;5047499;28;20203;-54
2022/07/11 10:07:27;;;;;;;1.33;0.77;;;;;;;19.50;100.00;97599.19;5050913;28;20395;-61
2022/07/11 10:09:56;;;;;;;0.80;0.80;;;;;;;18.98;100.00;97607.00;5046677;28;20227;-59
2022/07/11 10:12:25;;;;;;;0.80;0.70;;;;;;;19.15;100.00;97612.53;5048976;28;20233;-61
2022/07/11 10:14:54;;;;;;;0.90;0.90;;;;;;;18.62;100.00;97613.00;5047720;28;20639;-59
2022/07/11 10:17:30;;;;;;;0.83;0.80;;;;;;;18.98;100.00;97620.41;5045934;28;20253;-56
2022/07/11 10:20:03;;;;;;;0.60;0.60;;;;;;;19.10;100.00;97615.91;5048970;28;20679;-58
2022/07/11 10:22:36;;;;;;;0.97;0.93;;;;;;;19.16;100.00;97616.88;5049650;28;20202;-57
2022/07/11 10:25:18;;;;;;;1.57;0.53;;;;;;;18.63;100.00;97621.84;5046430;28;20196;-59
2022/07/11 10:27:59;;;;;;;1.13;0.77;;;;;;;18.37;100.00;97618.41;5048195;28;20727;-61
2022/07/11 10:30:46;;;;;;;0.30;0.30;;;;;;;18.26;100.00;97616.50;5047902;28;20223;-59
2022/07/11 10:33:16;;;;;;;1.23;1.23;;;;;;;18.86;100.00;97620.34;5048094;28;20294;-57
2022/07/11 10:35:46;;;;;;;0.57;0.57;;;;;;;19.17;100.00;97615.81;5046946;28;20199;-61
2022/07/11 10:38:15;;;;;;;0.60;0.60;;;;;;;19.36;100.00;97622.75;5045287;28;20246;-60
2022/07/11 10:40:48;;;;;;;0.43;0.43;;;;;;;19.41;100.00;97616.69;5046312;28;20200;-60
2022/07/11 10:43:38;;;;;;;0.40;0.40;;;;;;;19.44;100.00;97618.06;5048214;28;20337;-57
2022/07/11 10:46:08;;;;;;;0.60;0.60;;;;;;;19.36;100.00;97612.00;5048596;28;21182;-62
2022/07/11 10:48:53;;;;;;;0.50;0.37;;;;;;;19.63;100.00;97614.28;5044998;28;20619;-62
2022/07/11 10:51:25;;;;;;;1.43;0.50;;;;;;;19.84;100.00;97614.72;5049458;28;20215;-55
2022/07/11 10:53:54;;;;;;;0.50;0.50;;;;;;;20.07;93.43;97607.75;5047082;28;20437;-62
2022/07/11 10:56:42;;;;;;;1.50;0.63;;;;;;;20.17;90.04;97607.97;5048009;28;20203;-62
2022/07/11 10:59:21;;;;;;;0.23;0.23;;;;;;;20.27;93.59;97609.25;5044781;28;20719;-62
2022/07/11 11:02:03;;;;;;;0.50;0.50;;;;;;;20.07;88.33;97608.56;5045155;28;20725;-59
2022/07/11 11:04:49;;;;;;;0.60;0.60;;;;;;;19.70;97.32;97608.78;5046305;28;20219;-65
2022/07/11 11:07:40;;;;;;;0.83;0.57;;;;;;;19.67;95.45;97615.44;5046225;28;20735;-62
2022/07/11 11:10:51;;;;;;;0.50;0.50;;;;;;;20.17;89.87;97613.34;5047205;28;20224;-61
2022/07/11 11:13:21;;;;;;;0.70;0.70;;;;;;;20.36;93.14;97614.03;4982609;28;20658;-61
2022/07/11 11:15:51;;;;;;;2.80;0.60;;;;;;;20.27;93.04;97612.75;4976752;28;20213;-62
2022/07/11 11:18:42;;;;;;;0.33;0.33;;;;;;;20.31;85.48;97605.06;4978325;28;20228;-62
2022/07/11 11:21:19;;;;;;;0.40;0.40;;;;;;;20.22;94.73;97607.28;4977340;28;20435;-60
2022/07/11 11:24:08;;;;;;;0.50;0.50;;;;;;;20.49;85.81;97606.75;4980983;28;20214;-59
2022/07/11 11:26:48;;;;;;;0.33;0.33;;;;;;;20.12;84.90;97605.19;4978145;28;20212;-60
2022/07/11 11:29:24;;;;;;;1.50;0.77;;;;;;;20.33;81.52;97609.13;4975538;28;20225;-61
2022/07/11 11:31:57;;;;;;;0.53;0.50;;;;;;;20.40;74.90;97606.31;4979122;28;20790;-55
2022/07/11 11:34:27;;;;;;;0.57;0.43;;;;;;;20.58;81.42;97605.34;4979826;28;20210;-61
2022/07/11 11:36:59;;;;;;;1.80;0.43;;;;;;;20.73;73.59;97604.81;4977767;28;20776;-61
2022/07/11 11:39:29;;;;;;;0.20;0.20;;;;;;;20.99;65.99;97594.53;4978052;28;20234;-60
2022/07/11 11:42:06;;;;;;;0.40;0.40;;;;;;;21.45;65.67;97591.84;4978830;28;20209;-64
2022/07/11 11:44:35;;;;;;;0.23;0.20;;;;;;;21.33;64.51;97596.50;4977865;28;20404;-64
2022/07/11 11:47:04;;;;;;;0.40;0.27;;;;;;;21.65;60.25;97596.75;4973973;28;20229;-62
2022/07/11 11:49:43;;;;;;;0.37;0.30;;;;;;;22.24;56.24;97595.47;5021864;28;20222;-63
2022/07/11 11:52:12;;;;;;;0.40;0.20;;;;;;;22.37;64.05;97585.34;5048245;28;20495;-64
2022/07/11 11:54:41;;;;;;;0.20;0.20;;;;;;;23.18;53.15;97591.09;5044353;28;20219;-60